Cumberland, WV

9:18 AM EDT on May 23, 2017 (GMT -0400)
Greater Cumberland Regional

Weather History for KCBE - March, 2013

Change the Weather History Date:

Sunday, March 10, 2013

  Actual Average (KMRB) Record (KMRB)
Temperature  
Mean Temperature 47 °F -  
Max Temperature 64 °F 51 °F 80 °F (2016)
Min Temperature 30 °F 30 °F 1 °F (1984)
Degree Days  
Heating Degree Days 18    
Moisture  
Dew Point 31 °F    
Average Humidity 62    
Maximum Humidity 100    
Minimum Humidity 30    
Precipitation  
Precipitation 0.00 in - - ()
Sea Level Pressure  
Sea Level Pressure 30.24 in    
Wind  
Wind Speed 2 mph (South)    
Max Wind Speed 13 mph    
Max Gust Speed 18 mph    
Visibility 10 miles    
Events      
Averages and records for this station are not official NWS values.
T = Trace of Precipitation, MM = Missing Value Source: NWS Daily Summary

Daily Weather History Graph

Daily Weather History Graph

Search for Another Location

Airport or City:

Trip Planner

Search our weather history database for the weather conditions in past years. The results will help you decide how hot, cold, wet, or windy it might be!

Date:

Astronomy

Mar. 10, 2013 Rise Set
Actual Time 7:33 AM EDT 7:17 PM EDT
Civil Twilight 7:07 AM EDT 7:43 PM EDT
Nautical Twilight 6:35 AM EDT 8:15 PM EDT
Astronomical Twilight 6:04 AM EDT 8:46 PM EDT
Moon 6:32 AM EDT (3/10) 6:22 PM EDT (3/10)
Length of Visible Light 12h 36m
Length of Day
11h 43m
Waning Crescent, 2% of the Moon is Illuminated
Mar 10
Waning Crescent
Mar 11
New
Mar 19
First Quarter
Mar 27
Full
Apr 3
Last Quarter

Hourly Weather History & Observations

Time (EDT) Temp. Windchill Dew Point Humidity Pressure Visibility Wind Dir Wind Speed Gust Speed Precip Events Conditions
12:16 AM 32.0 °F - 28.4 °F 87% 30.31 in 10.0 mi Calm Calm - N/A   Clear
12:36 AM 32.0 °F - 28.4 °F 87% 30.31 in 10.0 mi Calm Calm - N/A   Clear
12:56 AM 32.0 °F - 28.4 °F 87% 30.31 in 10.0 mi Calm Calm - N/A   Clear
1:16 AM 32.0 °F - 28.4 °F 87% 30.31 in 10.0 mi Calm Calm - N/A   Clear
1:36 AM 32.0 °F - 28.4 °F 87% 30.31 in 10.0 mi Calm Calm - N/A   Clear
1:56 AM 32.0 °F - 28.4 °F 87% 30.30 in 10.0 mi Calm Calm - N/A   Clear
3:16 AM 32.0 °F - 28.4 °F 87% 30.30 in 10.0 mi Calm Calm - N/A   Clear
3:36 AM 30.2 °F - 28.4 °F 93% 30.29 in 7.0 mi Calm Calm - N/A   Clear
3:57 AM 30.2 °F - 28.4 °F 93% 30.28 in 10.0 mi Calm Calm - N/A   Clear
4:17 AM 30.2 °F - 28.4 °F 93% 30.28 in 10.0 mi Calm Calm - N/A   Clear
4:37 AM 30.2 °F - 28.4 °F 93% 30.28 in 10.0 mi Calm Calm - N/A   Clear
4:57 AM 30.2 °F - 28.4 °F 93% 30.29 in 10.0 mi Calm Calm - N/A   Clear
5:17 AM 30.2 °F - 28.4 °F 93% 30.29 in 10.0 mi Calm Calm - N/A   Clear
5:37 AM 30.2 °F - 28.4 °F 93% 30.29 in 10.0 mi Calm Calm - N/A   Clear
5:57 AM 30.2 °F - 28.4 °F 93% 30.28 in 10.0 mi Calm Calm - N/A   Clear
6:17 AM 30.2 °F - 28.4 °F 93% 30.28 in 10.0 mi Calm Calm - N/A   Clear
6:37 AM 30.2 °F - 28.4 °F 93% 30.29 in 10.0 mi Calm Calm - N/A   Clear
6:57 AM 30.2 °F - 28.4 °F 93% 30.29 in 10.0 mi Calm Calm - N/A   Clear
7:17 AM 30.2 °F 26.7 °F 28.4 °F 93% 30.29 in 10.0 mi West 3.5 mph - N/A   Clear
7:37 AM 30.2 °F - 30.2 °F 100% 30.30 in 10.0 mi Calm Calm - N/A   Clear
7:57 AM 30.2 °F - 28.4 °F 93% 30.30 in 5.0 mi Calm Calm - N/A   Clear
8:17 AM 30.2 °F - 28.4 °F 93% 30.30 in 7.0 mi Calm Calm - N/A   Clear
8:37 AM 30.2 °F - 30.2 °F 100% 30.30 in 7.0 mi Calm Calm - N/A   Clear
8:57 AM 32.0 °F - 30.2 °F 93% 30.31 in 10.0 mi Calm Calm - N/A   Clear
9:17 AM 33.8 °F - 32.0 °F 93% 30.31 in 10.0 mi Calm Calm - N/A   Clear
9:37 AM 35.6 °F - 32.0 °F 87% 30.31 in 10.0 mi Calm Calm - N/A   Clear
9:57 AM 35.6 °F - 32.0 °F 87% 30.30 in 10.0 mi Calm Calm - N/A   Clear
10:17 AM 35.6 °F - 32.0 °F 87% 30.31 in 10.0 mi Calm Calm - N/A   Clear
10:37 AM 37.4 °F - 32.0 °F 81% 30.31 in 10.0 mi Calm Calm - N/A   Clear
10:57 AM 39.2 °F - 32.0 °F 75% 30.30 in 10.0 mi Calm Calm - N/A   Clear
11:17 AM 41.0 °F - 32.0 °F 70% 30.30 in 10.0 mi Calm Calm - N/A   Clear
11:37 AM 42.8 °F - 32.0 °F 66% 30.30 in 10.0 mi Calm Calm - N/A   Clear
11:57 AM 44.6 °F - 32.0 °F 61% 30.29 in 10.0 mi Calm Calm - N/A   Clear
12:17 PM 46.4 °F - 32.0 °F 57% 30.27 in 10.0 mi Calm Calm - N/A   Clear
12:38 PM 50.0 °F - 30.2 °F 47% 30.27 in 10.0 mi Calm Calm - N/A   Clear
12:58 PM 51.8 °F - 32.0 °F 47% 30.26 in 10.0 mi Calm Calm - N/A   Clear
1:18 PM 53.6 °F - 30.2 °F 41% 30.26 in 10.0 mi Calm Calm - N/A   Clear
1:38 PM 57.2 °F - 32.0 °F 38% 30.25 in 10.0 mi South 4.6 mph - N/A   Clear
1:58 PM 59.0 °F - 32.0 °F 36% 30.24 in 10.0 mi SSW 3.5 mph - N/A   Clear
2:18 PM 59.0 °F - 32.0 °F 36% 30.22 in 10.0 mi SSW 4.6 mph - N/A   Clear
2:38 PM 59.0 °F - 32.0 °F 36% 30.21 in 10.0 mi SSW 5.8 mph - N/A   Clear
2:58 PM 60.8 °F - 32.0 °F 34% 30.20 in 10.0 mi SSW 6.9 mph - N/A   Clear
3:18 PM 62.6 °F - 33.8 °F 34% 30.20 in 10.0 mi SW 6.9 mph - N/A   Clear
3:38 PM 64.4 °F - 32.0 °F 30% 30.18 in 10.0 mi SSW 6.9 mph - N/A   Clear
3:58 PM 64.4 °F - 32.0 °F 30% 30.18 in 10.0 mi SW 4.6 mph - N/A   Clear
4:18 PM 64.4 °F - 32.0 °F 30% 30.17 in 10.0 mi SE 10.4 mph - N/A   Clear
4:38 PM 64.4 °F - 32.0 °F 30% 30.17 in 10.0 mi South 10.4 mph - N/A   Clear
4:58 PM 64.4 °F - 33.8 °F 32% 30.16 in 10.0 mi SE 10.4 mph - N/A   Clear
5:18 PM 64.4 °F - 32.0 °F 30% 30.16 in 10.0 mi SSE 9.2 mph - N/A   Clear
5:38 PM 64.4 °F - 32.0 °F 30% 30.16 in 10.0 mi SE 12.7 mph 18.4 mph N/A   Clear
5:58 PM 62.6 °F - 32.0 °F 32% 30.15 in 10.0 mi SE 10.4 mph - N/A   Clear
6:18 PM 60.8 °F - 32.0 °F 34% 30.16 in 10.0 mi SSE 8.1 mph - N/A   Clear
6:38 PM 60.8 °F - 32.0 °F 34% 30.17 in 10.0 mi SSE 8.1 mph - N/A   Clear
6:58 PM 59.0 °F - 32.0 °F 36% 30.17 in 10.0 mi SSE 8.1 mph - N/A   Clear
7:18 PM 59.0 °F - 32.0 °F 36% 30.17 in 10.0 mi SSE 9.2 mph - N/A   Clear
7:38 PM 59.0 °F - 32.0 °F 36% 30.16 in 10.0 mi SSE 9.2 mph - N/A   Clear
7:58 PM 57.2 °F - 32.0 °F 38% 30.17 in 10.0 mi South 9.2 mph - N/A   Clear
8:18 PM 55.4 °F - 32.0 °F 41% 30.18 in 10.0 mi South 8.1 mph - N/A   Clear
8:38 PM 55.4 °F - 32.0 °F 41% 30.18 in 10.0 mi South 5.8 mph - N/A   Clear
8:58 PM 55.4 °F - 32.0 °F 41% 30.18 in 10.0 mi South 5.8 mph - N/A   Clear
9:18 PM 53.6 °F - 32.0 °F 44% 30.18 in 10.0 mi SSE 5.8 mph - N/A   Clear
9:39 PM 53.6 °F - 30.2 °F 41% 30.19 in 10.0 mi South 3.5 mph - N/A   Clear
9:59 PM 53.6 °F - 30.2 °F 41% 30.18 in 10.0 mi South 3.5 mph - N/A   Clear
10:39 PM 51.8 °F - 30.2 °F 44% 30.17 in 10.0 mi SSW 3.5 mph - N/A   Clear
10:59 PM 51.8 °F - 30.2 °F 44% 30.17 in 10.0 mi SSW 5.8 mph - N/A   Clear
11:19 PM 50.0 °F - 30.2 °F 47% 30.17 in 10.0 mi SSW 4.6 mph - N/A   Clear
11:39 PM 50.0 °F - 30.2 °F 47% 30.17 in 10.0 mi SSW 4.6 mph - N/A   Clear
11:59 PM 50.0 °F - 30.2 °F 47% 30.15 in 10.0 mi SSW 5.8 mph - N/A   Clear
12:19 AM 50.0 °F - 30.2 °F 47% 30.15 in 10.0 mi SSW 4.6 mph - N/A   Clear
12:39 AM 50.0 °F - 30.2 °F 47% 30.16 in 10.0 mi SW 5.8 mph - N/A   Clear
12:59 AM 50.0 °F - 30.2 °F 47% 30.15 in 10.0 mi SSW 5.8 mph - N/A   Clear